Time;durP1;ratioP1;P1;durP2;ratioP2;P2;SDS_P1;SDS_P2;PMS_P1;PMS_P2;Temp;Humidity;BMP_temperature;BMP_pressure;BME280_temperature;BME280_humidity;BME280_pressure;Samples;Min_cycle;Max_cycle;Signal;HPM_P1;HPM_P2
2021/09/01 00:01:07;;;;;;;5.25;3.33;;;;;;;;;;6339699;22;20134;-62
2021/09/01 00:03:33;;;;;;;5.30;3.60;;;;;;;;;;6339950;22;20165;-62
2021/09/01 00:05:59;;;;;;;5.43;3.47;;;;;;;;;;6339574;22;20149;-61
2021/09/01 00:08:25;;;;;;;6.55;3.50;;;;;;;;;;6339700;22;20146;-61
2021/09/01 00:10:51;;;;;;;4.65;3.22;;;;;;;;;;6339535;22;20150;-62
2021/09/01 00:13:17;;;;;;;4.20;3.40;;;;;;;;;;6339264;22;20158;-62
2021/09/01 00:15:43;;;;;;;4.90;3.45;;;;;;;;;;6339516;22;20139;-62
2021/09/01 00:18:09;;;;;;;5.18;3.80;;;;;;;;;;6339707;22;20143;-62
2021/09/01 00:20:35;;;;;;;5.10;3.00;;;;;;;;;;6339287;22;20357;-62
2021/09/01 00:23:01;;;;;;;4.43;3.47;;;;;;;;;;6339234;22;20224;-62
2021/09/01 00:25:27;;;;;;;3.85;2.83;;;;;;;;;;6339381;22;20227;-62
2021/09/01 00:27:53;;;;;;;4.35;3.30;;;;;;;;;;6339362;22;20177;-62
2021/09/01 00:30:19;;;;;;;4.40;2.83;;;;;;;;;;6339212;22;20165;-62
2021/09/01 00:32:45;;;;;;;4.63;3.33;;;;;;;;;;6339104;22;20170;-61
2021/09/01 00:35:11;;;;;;;4.68;3.30;;;;;;;;;;6339109;22;20134;-61
2021/09/01 00:37:37;;;;;;;5.25;3.30;;;;;;;;;;6339187;22;20148;-61
2021/09/01 00:40:03;;;;;;;6.55;3.28;;;;;;;;;;6339384;22;20623;-61
2021/09/01 00:42:29;;;;;;;4.15;3.00;;;;;;;;;;6339412;22;20138;-61
2021/09/01 00:44:55;;;;;;;4.43;3.17;;;;;;;;;;6339016;22;20390;-62
2021/09/01 00:47:24;;;;;;;4.55;3.03;;;;;;;;;;6339001;22;20138;-62
2021/09/01 00:49:52;;;;;;;4.95;3.17;;;;;;;;;;6339487;22;20142;-62
2021/09/01 00:52:19;;;;;;;5.10;3.40;;;;;;;;;;6338847;22;20170;-62
2021/09/01 00:54:45;;;;;;;5.00;3.25;;;;;;;;;;6338676;22;20166;-61
2021/09/01 00:57:11;;;;;;;3.90;3.20;;;;;;;;;;6338717;22;20217;-61
2021/09/01 00:59:39;;;;;;;4.53;3.38;;;;;;;;;;6338714;22;20138;-61
2021/09/01 01:02:05;;;;;;;5.10;3.20;;;;;;;;;;6338791;22;20224;-61
2021/09/01 01:04:32;;;;;;;4.03;2.90;;;;;;;;;;6339032;22;20146;-61
2021/09/01 01:07:02;;;;;;;4.60;3.50;;;;;;;;;;6338749;22;20224;-61
2021/09/01 01:09:28;;;;;;;5.70;3.45;;;;;;;;;;6338631;22;20152;-61
2021/09/01 01:12:01;;;;;;;4.07;3.30;;;;;;;;;;6339041;22;20141;-60
2021/09/01 01:14:27;;;;;;;4.45;3.40;;;;;;;;;;6338470;22;20172;-61
2021/09/01 01:16:53;;;;;;;6.07;3.38;;;;;;;;;;6339363;22;20142;-61
2021/09/01 01:19:22;;;;;;;5.00;3.53;;;;;;;;;;6338560;22;20420;-61
2021/09/01 01:21:48;;;;;;;8.23;3.92;;;;;;;;;;6338472;22;20150;-61
2021/09/01 01:24:14;;;;;;;4.78;3.35;;;;;;;;;;6338807;22;20150;-61
2021/09/01 01:26:40;;;;;;;5.47;3.72;;;;;;;;;;6338601;22;20220;-61
2021/09/01 01:29:08;;;;;;;6.00;3.95;;;;;;;;;;6338466;22;20168;-60
2021/09/01 01:31:37;;;;;;;7.05;3.83;;;;;;;;;;6338538;22;20142;-60
2021/09/01 01:34:03;;;;;;;4.20;3.55;;;;;;;;;;6338331;22;20166;-61
2021/09/01 01:36:28;;;;;;;3.90;3.20;;;;;;;;;;6338474;22;20637;-61
2021/09/01 01:38:55;;;;;;;5.07;3.97;;;;;;;;;;6338770;22;20146;-62
2021/09/01 01:41:21;;;;;;;7.43;4.00;;;;;;;;;;6338455;22;20209;-62
2021/09/01 01:43:47;;;;;;;5.15;3.60;;;;;;;;;;6338712;22;20145;-61
2021/09/01 01:46:14;;;;;;;8.15;3.90;;;;;;;;;;6338410;22;20138;-62
2021/09/01 01:48:40;;;;;;;5.10;3.53;;;;;;;;;;6338448;22;20142;-61
2021/09/01 01:51:06;;;;;;;6.10;4.15;;;;;;;;;;6338270;22;20184;-61
2021/09/01 01:53:32;;;;;;;6.93;4.13;;;;;;;;;;6338302;22;20241;-61
2021/09/01 01:55:58;;;;;;;5.38;4.15;;;;;;;;;;6338563;22;20558;-61
2021/09/01 01:58:24;;;;;;;7.35;4.10;;;;;;;;;;6338339;22;20176;-61
2021/09/01 02:00:50;;;;;;;6.97;4.93;;;;;;;;;;6336995;22;20147;-60
2021/09/01 02:03:16;;;;;;;8.00;4.68;;;;;;;;;;6339004;22;20214;-61
2021/09/01 02:05:42;;;;;;;8.93;4.68;;;;;;;;;;6338636;22;20164;-61
2021/09/01 02:08:08;;;;;;;6.90;4.20;;;;;;;;;;6338594;22;20506;-61
2021/09/01 02:10:34;;;;;;;8.55;5.00;;;;;;;;;;6340414;22;20153;-60
2021/09/01 02:13:00;;;;;;;8.55;4.95;;;;;;;;;;6340458;22;20569;-60
2021/09/01 02:15:26;;;;;;;7.30;5.00;;;;;;;;;;6340823;22;20542;-61
2021/09/01 02:17:52;;;;;;;6.70;4.28;;;;;;;;;;6341274;22;20466;-61
2021/09/01 02:20:18;;;;;;;7.85;4.65;;;;;;;;;;6340551;22;20557;-61
2021/09/01 02:22:44;;;;;;;8.82;4.90;;;;;;;;;;6340514;22;20165;-61
2021/09/01 02:25:11;;;;;;;6.18;4.65;;;;;;;;;;6340459;22;20569;-62
2021/09/01 02:27:38;;;;;;;8.35;5.13;;;;;;;;;;6340614;22;20191;-62
2021/09/01 02:30:04;;;;;;;11.32;5.40;;;;;;;;;;6340625;22;20138;-63
2021/09/01 02:32:30;;;;;;;7.32;5.10;;;;;;;;;;6340762;22;20551;-62
2021/09/01 02:34:56;;;;;;;9.55;5.30;;;;;;;;;;6340836;22;20145;-62
2021/09/01 02:37:22;;;;;;;10.57;5.60;;;;;;;;;;6340909;22;20292;-62
2021/09/01 02:39:48;;;;;;;9.88;5.80;;;;;;;;;;6340673;22;20557;-62
2021/09/01 02:42:14;;;;;;;10.40;5.93;;;;;;;;;;6341088;22;20206;-62
2021/09/01 02:44:40;;;;;;;9.98;6.00;;;;;;;;;;6341034;22;20145;-63
2021/09/01 02:47:06;;;;;;;9.27;5.88;;;;;;;;;;6340802;22;20207;-62
2021/09/01 02:49:32;;;;;;;9.18;5.45;;;;;;;;;;6341017;22;20230;-63
2021/09/01 02:51:58;;;;;;;9.35;5.40;;;;;;;;;;6340757;22;20579;-63
2021/09/01 02:54:24;;;;;;;10.65;6.10;;;;;;;;;;6340589;22;20256;-62
2021/09/01 02:56:50;;;;;;;11.45;5.68;;;;;;;;;;6340556;22;20166;-62
2021/09/01 02:59:16;;;;;;;11.05;6.07;;;;;;;;;;6340687;22;20165;-62
2021/09/01 03:01:42;;;;;;;10.77;5.85;;;;;;;;;;6340597;22;20611;-62
2021/09/01 03:04:08;;;;;;;10.95;6.22;;;;;;;;;;6340603;22;20139;-62
2021/09/01 03:06:34;;;;;;;10.25;6.55;;;;;;;;;;6340450;22;20195;-62
2021/09/01 03:09:00;;;;;;;11.75;6.45;;;;;;;;;;6340532;22;20153;-62
2021/09/01 03:11:26;;;;;;;14.18;6.80;;;;;;;;;;6340817;22;20440;-62
2021/09/01 03:13:51;;;;;;;11.00;5.97;;;;;;;;;;6340731;22;20685;-62
2021/09/01 03:16:17;;;;;;;14.32;6.22;;;;;;;;;;6340481;22;20164;-62
2021/09/01 03:18:43;;;;;;;11.50;6.40;;;;;;;;;;6340510;22;20141;-62
2021/09/01 03:21:10;;;;;;;12.45;6.50;;;;;;;;;;6339846;22;20154;-63
2021/09/01 03:23:36;;;;;;;14.50;6.97;;;;;;;;;;6340845;22;20213;-63
2021/09/01 03:26:02;;;;;;;15.35;7.95;;;;;;;;;;6340318;22;20174;-63
2021/09/01 03:28:28;;;;;;;17.92;7.45;;;;;;;;;;6340462;22;20142;-63
2021/09/01 03:30:54;;;;;;;16.27;7.82;;;;;;;;;;6340188;22;20450;-62
2021/09/01 03:33:19;;;;;;;14.45;8.15;;;;;;;;;;6340254;22;20158;-62
2021/09/01 03:35:45;;;;;;;13.93;7.72;;;;;;;;;;6340664;22;20143;-61
2021/09/01 03:38:11;;;;;;;14.60;8.13;;;;;;;;;;6340252;22;20596;-61
2021/09/01 03:40:37;;;;;;;13.10;7.65;;;;;;;;;;6340098;22;20193;-61
2021/09/01 03:43:03;;;;;;;16.45;7.55;;;;;;;;;;6340555;22;20146;-61
2021/09/01 03:45:29;;;;;;;12.43;7.57;;;;;;;;;;6340142;22;20442;-61
2021/09/01 03:47:55;;;;;;;15.55;8.38;;;;;;;;;;6340161;22;20153;-62
2021/09/01 03:50:21;;;;;;;19.05;9.23;;;;;;;;;;6339998;22;20143;-62
2021/09/01 03:52:47;;;;;;;14.75;7.55;;;;;;;;;;6340042;22;20170;-61
2021/09/01 03:55:13;;;;;;;18.60;8.95;;;;;;;;;;6340013;22;20134;-61
2021/09/01 03:57:39;;;;;;;18.52;8.95;;;;;;;;;;6340488;22;20141;-61
2021/09/01 04:00:06;;;;;;;16.30;8.07;;;;;;;;;;6340375;22;20138;-62
2021/09/01 04:02:32;;;;;;;17.42;8.65;;;;;;;;;;6340156;22;20146;-62
2021/09/01 04:04:58;;;;;;;15.57;8.80;;;;;;;;;;6340100;22;20579;-62
2021/09/01 04:07:24;;;;;;;16.52;8.43;;;;;;;;;;6339997;22;20138;-62
2021/09/01 04:09:50;;;;;;;14.65;8.68;;;;;;;;;;6339690;22;20543;-62
2021/09/01 04:12:16;;;;;;;16.85;8.80;;;;;;;;;;6339522;22;20138;-62
2021/09/01 04:14:42;;;;;;;17.38;9.45;;;;;;;;;;6339560;22;20162;-61
2021/09/01 04:17:07;;;;;;;18.15;8.70;;;;;;;;;;6339436;22;20145;-61
2021/09/01 04:19:34;;;;;;;14.73;8.68;;;;;;;;;;6339505;22;20138;-61
2021/09/01 04:21:59;;;;;;;17.30;8.82;;;;;;;;;;6339343;22;20150;-61
2021/09/01 04:24:25;;;;;;;13.70;8.32;;;;;;;;;;6339734;22;20146;-62
2021/09/01 04:26:51;;;;;;;16.60;8.20;;;;;;;;;;6339275;22;20214;-62
2021/09/01 04:29:17;;;;;;;17.38;8.57;;;;;;;;;;6339605;22;20568;-61
2021/09/01 04:31:44;;;;;;;14.70;8.25;;;;;;;;;;6339171;22;20142;-62
2021/09/01 04:34:10;;;;;;;15.65;8.10;;;;;;;;;;6337385;22;20170;-61
2021/09/01 04:36:35;;;;;;;13.88;7.53;;;;;;;;;;6339061;22;20622;-61
2021/09/01 04:39:02;;;;;;;14.10;7.72;;;;;;;;;;6339227;22;20225;-62
2021/09/01 04:41:27;;;;;;;12.13;8.25;;;;;;;;;;6339049;22;20149;-61
2021/09/01 04:43:54;;;;;;;13.88;7.43;;;;;;;;;;6339119;22;20138;-61
2021/09/01 04:46:20;;;;;;;12.05;7.35;;;;;;;;;;6339078;22;20493;-61
2021/09/01 04:48:46;;;;;;;13.90;7.57;;;;;;;;;;6339162;22;20160;-61
2021/09/01 04:51:12;;;;;;;14.25;7.22;;;;;;;;;;6338983;22;20217;-66
2021/09/01 04:53:37;;;;;;;10.88;6.97;;;;;;;;;;6338974;22;20230;-66
2021/09/01 04:56:03;;;;;;;18.02;7.45;;;;;;;;;;6338938;22;20556;-66
2021/09/01 04:58:29;;;;;;;11.35;7.07;;;;;;;;;;6338906;22;20542;-66
2021/09/01 05:00:55;;;;;;;12.40;6.32;;;;;;;;;;6339179;22;20191;-66
2021/09/01 05:03:21;;;;;;;11.27;6.43;;;;;;;;;;6338903;22;20134;-65
2021/09/01 05:05:47;;;;;;;9.05;6.85;;;;;;;;;;6338727;22;20141;-66
2021/09/01 05:08:13;;;;;;;10.43;6.47;;;;;;;;;;6338659;22;20333;-66
2021/09/01 05:10:39;;;;;;;11.90;7.15;;;;;;;;;;6338842;22;20145;-66
2021/09/01 05:13:05;;;;;;;13.00;6.97;;;;;;;;;;6338605;22;20460;-66
2021/09/01 05:15:31;;;;;;;10.82;6.70;;;;;;;;;;6338754;22;20138;-66
2021/09/01 05:17:57;;;;;;;10.70;6.43;;;;;;;;;;6338553;22;20148;-66
2021/09/01 05:20:23;;;;;;;13.15;6.47;;;;;;;;;;6337423;22;20152;-59
2021/09/01 05:22:50;;;;;;;12.05;6.90;;;;;;;;;;6338370;22;20161;-59
2021/09/01 05:25:17;;;;;;;8.82;6.55;;;;;;;;;;6338542;22;20571;-60
2021/09/01 05:27:44;;;;;;;9.65;5.95;;;;;;;;;;6338391;22;20536;-59
2021/09/01 05:30:14;;;;;;;8.90;6.07;;;;;;;;;;6338833;22;20142;-59
2021/09/01 05:32:43;;;;;;;13.15;5.63;;;;;;;;;;6338351;22;20281;-59
2021/09/01 05:35:09;;;;;;;9.82;6.07;;;;;;;;;;6338706;22;20138;-61
2021/09/01 05:37:37;;;;;;;11.43;6.28;;;;;;;;;;6338337;22;20213;-62
2021/09/01 05:40:03;;;;;;;9.23;6.30;;;;;;;;;;6338378;22;20568;-62
2021/09/01 05:42:30;;;;;;;8.82;6.13;;;;;;;;;;6338713;22;20207;-61
2021/09/01 05:44:57;;;;;;;7.05;5.60;;;;;;;;;;6338587;22;20463;-62
2021/09/01 05:47:25;;;;;;;11.23;5.80;;;;;;;;;;6338228;22;20198;-61
2021/09/01 05:53:35;;;;;;;9.88;6.05;;;;;;;;;;6167993;22;21994;31
2021/09/01 06:06:53;;;;;;;6.43;4.95;;;;;;;;;;6291695;22;20894;31
2021/09/01 06:41:32;;;;;;;5.50;4.10;;;;;;;;;;6296794;22;20536;-62
2021/09/01 06:43:57;;;;;;;6.78;4.32;;;;;;;;;;6315708;22;20146;-63
2021/09/01 06:46:23;;;;;;;7.28;3.97;;;;;;;;;;6316477;22;20199;-63
2021/09/01 06:48:49;;;;;;;6.10;4.50;;;;;;;;;;6316449;22;20153;-63
2021/09/01 06:51:15;;;;;;;7.22;3.83;;;;;;;;;;6316077;22;20149;-63
2021/09/01 06:53:41;;;;;;;6.97;4.03;;;;;;;;;;6316067;22;20138;-63
2021/09/01 06:56:08;;;;;;;6.10;3.92;;;;;;;;;;6316183;22;20152;-63
2021/09/01 06:58:35;;;;;;;6.25;4.32;;;;;;;;;;6316147;22;20164;-63
2021/09/01 07:01:01;;;;;;;8.27;3.83;;;;;;;;;;6316440;22;20162;-64
2021/09/01 07:03:27;;;;;;;6.72;4.20;;;;;;;;;;6316317;22;20577;-62
2021/09/01 07:05:53;;;;;;;6.32;4.22;;;;;;;;;;6316450;22;20142;-63
2021/09/01 07:08:21;;;;;;;8.02;4.32;;;;;;;;;;6316721;22;20145;-63
2021/09/01 07:10:47;;;;;;;7.78;4.10;;;;;;;;;;6316779;22;20191;-64
2021/09/01 07:13:14;;;;;;;5.13;3.70;;;;;;;;;;6316337;22;20200;-63
2021/09/01 07:15:40;;;;;;;6.70;3.97;;;;;;;;;;6316451;22;20780;-63
2021/09/01 07:18:06;;;;;;;5.60;3.95;;;;;;;;;;6316338;22;20141;-64
2021/09/01 07:20:32;;;;;;;6.10;4.30;;;;;;;;;;6316268;22;20230;-64
2021/09/01 07:22:58;;;;;;;4.40;3.80;;;;;;;;;;6316236;22;20284;-63
2021/09/01 07:25:24;;;;;;;6.93;3.53;;;;;;;;;;6316369;22;20134;-62
2021/09/01 07:27:50;;;;;;;5.40;4.18;;;;;;;;;;6316517;22;20146;-63
2021/09/01 07:30:16;;;;;;;7.55;4.22;;;;;;;;;;6316584;22;20229;-63
2021/09/01 07:32:42;;;;;;;6.28;4.00;;;;;;;;;;6316382;22;20146;-63
2021/09/01 07:35:08;;;;;;;7.55;4.30;;;;;;;;;;6316533;22;20146;-62
2021/09/01 07:37:34;;;;;;;6.47;4.55;;;;;;;;;;6316237;22;20138;-62
2021/09/01 07:40:00;;;;;;;4.95;3.60;;;;;;;;;;6316064;22;20224;-62
2021/09/01 07:42:26;;;;;;;6.28;3.95;;;;;;;;;;6316017;22;20227;-63
2021/09/01 07:44:52;;;;;;;5.72;3.78;;;;;;;;;;6316121;22;20219;-64
2021/09/01 07:47:18;;;;;;;6.82;4.13;;;;;;;;;;6316105;22;20797;-64
2021/09/01 07:49:44;;;;;;;7.53;4.20;;;;;;;;;;6315989;22;20149;-63
2021/09/01 07:52:10;;;;;;;5.03;4.32;;;;;;;;;;6310886;22;20156;-63
2021/09/01 07:54:35;;;;;;;5.78;3.83;;;;;;;;;;6308991;22;20138;-64
2021/09/01 07:57:01;;;;;;;5.28;3.55;;;;;;;;;;6309195;22;20149;-63
2021/09/01 07:59:27;;;;;;;7.45;4.35;;;;;;;;;;6309224;22;20162;-63
2021/09/01 08:01:53;;;;;;;5.45;4.15;;;;;;;;;;6309026;22;20551;-63
2021/09/01 08:04:19;;;;;;;4.95;3.92;;;;;;;;;;6308995;22;20135;-63
2021/09/01 08:06:45;;;;;;;4.63;3.85;;;;;;;;;;6309145;22;20150;-62
2021/09/01 08:09:11;;;;;;;6.95;4.13;;;;;;;;;;6308933;22;20191;-64
2021/09/01 08:11:37;;;;;;;5.63;4.00;;;;;;;;;;6309340;22;20573;-63
2021/09/01 08:14:03;;;;;;;6.13;3.70;;;;;;;;;;6309183;22;20134;-63
2021/09/01 08:16:29;;;;;;;4.75;3.92;;;;;;;;;;6309357;22;20559;-63
2021/09/01 08:18:55;;;;;;;7.75;4.40;;;;;;;;;;6309104;22;20226;-63
2021/09/01 08:21:21;;;;;;;5.07;3.83;;;;;;;;;;6308981;22;20510;-63
2021/09/01 08:23:47;;;;;;;5.80;3.88;;;;;;;;;;6308634;22;20151;-63
2021/09/01 08:26:13;;;;;;;6.32;4.18;;;;;;;;;;6308995;22;20135;-63
2021/09/01 08:28:39;;;;;;;6.15;3.97;;;;;;;;;;6308535;22;20138;-63
2021/09/01 08:31:05;;;;;;;5.70;3.92;;;;;;;;;;6281479;22;20169;-63
2021/09/01 08:33:31;;;;;;;5.43;3.63;;;;;;;;;;6308115;22;20562;-63
2021/09/01 08:35:57;;;;;;;5.45;3.85;;;;;;;;;;6308164;22;20147;-63
2021/09/01 08:38:23;;;;;;;5.38;4.07;;;;;;;;;;6308056;22;20142;-63
2021/09/01 08:40:49;;;;;;;6.97;4.18;;;;;;;;;;6308006;22;20154;-63
2021/09/01 08:43:17;;;;;;;9.52;4.60;;;;;;;;;;6308026;22;20227;-63
2021/09/01 08:45:44;;;;;;;7.57;4.07;;;;;;;;;;6308163;22;20148;-63
2021/09/01 08:48:11;;;;;;;5.53;3.88;;;;;;;;;;6308297;22;20135;-63
2021/09/01 08:50:37;;;;;;;5.03;3.92;;;;;;;;;;6308052;22;20149;-62
2021/09/01 08:53:03;;;;;;;5.65;4.25;;;;;;;;;;6308518;22;20146;-62
2021/09/01 08:55:29;;;;;;;7.68;3.92;;;;;;;;;;6307973;22;20611;-63
2021/09/01 08:57:55;;;;;;;8.65;4.80;;;;;;;;;;6308212;22;20554;-63
2021/09/01 09:00:21;;;;;;;5.07;3.63;;;;;;;;;;6307999;22;20386;-63
2021/09/01 09:02:54;;;;;;;7.88;4.47;;;;;;;;;;6307566;22;20480;-63
2021/09/01 09:05:29;;;;;;;7.10;4.00;;;;;;;;;;6307911;22;20583;-64
2021/09/01 09:07:55;;;;;;;7.38;4.30;;;;;;;;;;6308322;22;20126;-63
2021/09/01 09:10:27;;;;;;;7.22;4.38;;;;;;;;;;6308130;22;20143;-63
2021/09/01 09:12:57;;;;;;;6.25;4.20;;;;;;;;;;6308263;22;20142;-63
2021/09/01 09:15:22;;;;;;;5.22;4.00;;;;;;;;;;6307792;22;20149;-63
2021/09/01 09:17:48;;;;;;;7.50;4.70;;;;;;;;;;6307824;22;20150;-64
2021/09/01 09:20:14;;;;;;;6.63;4.53;;;;;;;;;;6307971;22;20170;-63
2021/09/01 09:22:41;;;;;;;4.93;4.07;;;;;;;;;;6307813;22;20162;-63
2021/09/01 09:25:07;;;;;;;7.25;4.68;;;;;;;;;;6307665;22;20139;-64
2021/09/01 09:27:47;;;;;;;8.05;4.38;;;;;;;;;;6307998;22;20513;-63
2021/09/01 09:30:22;;;;;;;8.02;4.75;;;;;;;;;;6307647;22;20152;-63
2021/09/01 09:33:00;;;;;;;8.00;4.38;;;;;;;;;;6307932;22;20217;-62
2021/09/01 09:35:27;;;;;;;6.47;4.20;;;;;;;;;;6307598;22;20442;-63
2021/09/01 09:38:03;;;;;;;5.60;4.40;;;;;;;;;;6307949;22;20477;-63
2021/09/01 09:40:30;;;;;;;6.10;4.30;;;;;;;;;;6307679;22;20162;-63
2021/09/01 09:42:56;;;;;;;5.68;4.30;;;;;;;;;;6307502;22;20229;-63
2021/09/01 09:45:26;;;;;;;5.78;4.30;;;;;;;;;;6307355;22;20430;-64
2021/09/01 09:47:56;;;;;;;6.88;4.40;;;;;;;;;;6307634;22;20126;-63
2021/09/01 09:50:22;;;;;;;5.90;4.60;;;;;;;;;;6307386;22;20177;-63
2021/09/01 09:52:50;;;;;;;9.85;5.13;;;;;;;;;;6307717;22;20498;-63
2021/09/01 09:55:17;;;;;;;7.55;4.40;;;;;;;;;;6307610;22;20146;-63
2021/09/01 09:57:47;;;;;;;4.90;3.83;;;;;;;;;;6307679;22;20150;-63
2021/09/01 10:00:13;;;;;;;5.32;3.72;;;;;;;;;;6307050;22;20162;-64
2021/09/01 10:02:42;;;;;;;5.70;3.75;;;;;;;;;;6307108;22;20218;-64
2021/09/01 10:05:08;;;;;;;7.03;4.80;;;;;;;;;;6307307;22;20330;-63
2021/09/01 10:07:34;;;;;;;5.25;4.28;;;;;;;;;;6307033;22;20138;-63
2021/09/01 10:10:00;;;;;;;4.60;3.95;;;;;;;;;;6306855;22;20547;-63
2021/09/01 10:12:26;;;;;;;6.55;4.28;;;;;;;;;;6307245;22;20322;-63
2021/09/01 10:14:52;;;;;;;6.00;3.42;;;;;;;;;;6307124;22;20470;-67
2021/09/01 10:17:19;;;;;;;5.15;4.10;;;;;;;;;;6307041;22;20142;-63
2021/09/01 10:19:45;;;;;;;5.82;3.90;;;;;;;;;;6306824;22;20161;-63
2021/09/01 10:22:12;;;;;;;6.70;4.60;;;;;;;;;;6307000;22;20134;-62
2021/09/01 10:24:39;;;;;;;6.90;4.30;;;;;;;;;;6306642;22;20139;-62
2021/09/01 10:27:24;;;;;;;5.45;4.03;;;;;;;;;;6306945;22;20527;-62
2021/09/01 10:29:54;;;;;;;6.88;4.30;;;;;;;;;;6307109;22;20240;-58
2021/09/01 10:32:27;;;;;;;5.78;4.05;;;;;;;;;;6306840;22;20150;-59
2021/09/01 10:35:12;;;;;;;5.25;4.25;;;;;;;;;;6306883;22;20570;-59
2021/09/01 10:37:40;;;;;;;5.68;4.57;;;;;;;;;;6306862;22;20142;-58
2021/09/01 10:40:08;;;;;;;6.00;4.00;;;;;;;;;;6306655;22;20164;-58
2021/09/01 10:42:35;;;;;;;5.50;4.50;;;;;;;;;;6306826;22;20150;-58
2021/09/01 10:45:01;;;;;;;4.95;4.10;;;;;;;;;;6307094;22;20233;-59
2021/09/01 10:47:27;;;;;;;5.85;4.03;;;;;;;;;;6306883;22;20138;-58
2021/09/01 10:49:57;;;;;;;5.07;4.22;;;;;;;;;;6306641;22;20185;-59
2021/09/01 10:52:23;;;;;;;5.30;4.05;;;;;;;;;;6306778;22;20145;-58
2021/09/01 10:54:50;;;;;;;5.18;3.80;;;;;;;;;;6307168;22;20327;-58
2021/09/01 10:57:27;;;;;;;6.72;4.00;;;;;;;;;;6306685;22;20152;-58
2021/09/01 10:59:57;;;;;;;5.10;3.92;;;;;;;;;;6306638;22;20467;-59
2021/09/01 11:02:23;;;;;;;5.57;3.65;;;;;;;;;;6306819;22;20135;-58
2021/09/01 11:04:49;;;;;;;5.70;3.53;;;;;;;;;;6306789;22;20145;-58
2021/09/01 11:07:22;;;;;;;5.38;3.78;;;;;;;;;;6306976;22;20143;-58
2021/09/01 11:09:55;;;;;;;4.80;3.38;;;;;;;;;;6306758;22;20582;-58
2021/09/01 11:12:21;;;;;;;4.25;3.42;;;;;;;;;;6306321;22;20138;-57
2021/09/01 11:14:48;;;;;;;6.20;3.92;;;;;;;;;;6306453;22;20149;-57
2021/09/01 11:17:19;;;;;;;6.78;3.70;;;;;;;;;;6306646;22;20147;-58
2021/09/01 11:19:48;;;;;;;4.65;3.83;;;;;;;;;;6306704;22;20575;-57
2021/09/01 11:22:16;;;;;;;4.13;3.40;;;;;;;;;;6306716;22;20519;-58
2021/09/01 11:24:51;;;;;;;6.57;3.90;;;;;;;;;;6307221;22;20146;-57
2021/09/01 11:27:19;;;;;;;5.15;3.60;;;;;;;;;;6307879;22;20225;-57
2021/09/01 11:29:45;;;;;;;4.20;3.53;;;;;;;;;;6308979;22;20153;-57
2021/09/01 11:32:15;;;;;;;4.97;3.30;;;;;;;;;;6308876;22;20147;-58
2021/09/01 11:34:41;;;;;;;5.60;3.58;;;;;;;;;;6309133;22;20146;-57
2021/09/01 11:37:07;;;;;;;5.63;3.85;;;;;;;;;;6309052;22;20150;-58
2021/09/01 11:39:40;;;;;;;4.35;3.45;;;;;;;;;;6309085;22;20205;-57
2021/09/01 11:42:06;;;;;;;5.85;3.53;;;;;;;;;;6308566;22;20150;-59
2021/09/01 11:44:33;;;;;;;5.75;3.80;;;;;;;;;;6309014;22;20177;-57
2021/09/01 11:46:59;;;;;;;4.55;3.55;;;;;;;;;;6309157;22;20217;-58
2021/09/01 11:49:25;;;;;;;4.60;3.67;;;;;;;;;;6309343;22;20338;-58
2021/09/01 11:51:51;;;;;;;5.78;3.65;;;;;;;;;;6309173;22;20238;-58
2021/09/01 11:54:18;;;;;;;4.38;3.75;;;;;;;;;;6309589;22;20135;-58
2021/09/01 11:56:45;;;;;;;4.53;3.65;;;;;;;;;;6309176;22;20139;-57
2021/09/01 11:59:12;;;;;;;4.32;3.55;;;;;;;;;;6309129;22;20579;-58
2021/09/01 12:01:52;;;;;;;5.00;3.67;;;;;;;;;;6309035;22;20418;-58
2021/09/01 12:04:19;;;;;;;5.75;3.65;;;;;;;;;;6309153;22;20139;-58
2021/09/01 12:06:46;;;;;;;5.63;3.55;;;;;;;;;;6309415;22;20134;-58
2021/09/01 12:09:16;;;;;;;4.68;3.60;;;;;;;;;;6309087;22;20138;-58
2021/09/01 12:11:49;;;;;;;5.40;3.85;;;;;;;;;;6309006;22;20196;-58
2021/09/01 12:14:16;;;;;;;4.75;3.50;;;;;;;;;;6308894;22;20150;-58
2021/09/01 12:16:42;;;;;;;4.47;3.20;;;;;;;;;;6309637;22;20142;-58
2021/09/01 12:19:12;;;;;;;5.30;3.45;;;;;;;;;;6308845;22;20139;-58
2021/09/01 12:21:47;;;;;;;5.35;3.63;;;;;;;;;;6309279;22;20123;-58
2021/09/01 12:24:15;;;;;;;5.70;3.22;;;;;;;;;;6309392;22;20130;-58
2021/09/01 12:26:44;;;;;;;4.03;3.20;;;;;;;;;;6308849;22;20135;-58
2021/09/01 12:29:22;;;;;;;4.43;3.50;;;;;;;;;;6308820;22;20580;-58
2021/09/01 12:31:51;;;;;;;4.10;3.10;;;;;;;;;;6308751;22;20661;-58
2021/09/01 12:34:17;;;;;;;5.30;3.25;;;;;;;;;;6308715;22;20142;-58
2021/09/01 12:36:43;;;;;;;3.00;2.67;;;;;;;;;;6308988;22;20142;-58
2021/09/01 12:39:15;;;;;;;3.90;3.03;;;;;;;;;;6308586;22;20505;-59
2021/09/01 12:41:43;;;;;;;3.33;2.80;;;;;;;;;;6308850;22;20182;-58
2021/09/01 12:44:10;;;;;;;4.78;2.70;;;;;;;;;;6309106;22;20127;-58
2021/09/01 12:46:36;;;;;;;3.20;2.60;;;;;;;;;;6309060;22;20162;-58
2021/09/01 12:49:21;;;;;;;3.13;2.60;;;;;;;;;;6308686;22;20558;-58
2021/09/01 12:51:47;;;;;;;5.38;2.80;;;;;;;;;;6308590;22;20141;-58
2021/09/01 12:54:12;;;;;;;3.97;3.05;;;;;;;;;;6308717;22;20134;-59
2021/09/01 12:56:40;;;;;;;3.92;2.70;;;;;;;;;;6308503;22;20248;-59
2021/09/01 12:59:06;;;;;;;4.30;3.00;;;;;;;;;;6308657;22;20142;-58
2021/09/01 13:01:32;;;;;;;5.25;3.22;;;;;;;;;;6308466;22;20231;-58
2021/09/01 13:03:58;;;;;;;4.05;2.97;;;;;;;;;;6308397;22;20208;-58
2021/09/01 13:06:24;;;;;;;3.15;2.65;;;;;;;;;;6308259;22;20450;-58
2021/09/01 13:08:50;;;;;;;4.30;2.97;;;;;;;;;;6308322;22;20145;-58
2021/09/01 13:11:16;;;;;;;3.67;2.90;;;;;;;;;;6308273;22;20146;-58
2021/09/01 13:13:42;;;;;;;3.75;2.97;;;;;;;;;;6308095;22;20146;-58
2021/09/01 13:16:08;;;;;;;3.38;3.00;;;;;;;;;;6308190;22;20395;-58
2021/09/01 13:18:34;;;;;;;3.45;2.47;;;;;;;;;;6281054;22;20156;-58
2021/09/01 13:21:00;;;;;;;4.18;2.75;;;;;;;;;;6308022;22;20188;-58
2021/09/01 13:23:26;;;;;;;2.97;2.60;;;;;;;;;;6280909;22;20146;-58
2021/09/01 13:25:52;;;;;;;4.15;2.67;;;;;;;;;;6308196;22;20287;-58
2021/09/01 13:28:18;;;;;;;5.00;2.67;;;;;;;;;;6308066;22;20231;-58
2021/09/01 13:30:45;;;;;;;3.47;3.17;;;;;;;;;;6307752;22;20149;-58
2021/09/01 13:33:11;;;;;;;3.92;3.15;;;;;;;;;;6308174;22;20217;-58
2021/09/01 13:35:37;;;;;;;3.17;2.88;;;;;;;;;;6308026;22;20447;-58
2021/09/01 13:38:03;;;;;;;4.60;3.30;;;;;;;;;;6307691;22;20312;-58
2021/09/01 13:40:29;;;;;;;7.35;2.90;;;;;;;;;;6307681;22;20159;-58
2021/09/01 13:42:55;;;;;;;4.55;2.85;;;;;;;;;;6307410;22;20586;-58
2021/09/01 13:45:21;;;;;;;3.75;3.30;;;;;;;;;;6307759;22;20191;-59
2021/09/01 13:47:47;;;;;;;3.78;2.53;;;;;;;;;;6307693;22;20276;-58
2021/09/01 13:50:13;;;;;;;3.47;2.92;;;;;;;;;;6307762;22;20142;-58
2021/09/01 13:52:38;;;;;;;4.15;2.72;;;;;;;;;;6307444;22;20142;-58
2021/09/01 13:55:05;;;;;;;4.38;2.88;;;;;;;;;;6307887;22;20591;-58
2021/09/01 13:57:31;;;;;;;4.90;2.97;;;;;;;;;;6307747;22;20215;-58
2021/09/01 13:59:59;;;;;;;3.92;3.13;;;;;;;;;;6307351;22;20166;-59
2021/09/01 14:02:25;;;;;;;5.78;3.42;;;;;;;;;;6307605;22;20217;-58
2021/09/01 14:04:51;;;;;;;4.00;2.80;;;;;;;;;;6307006;22;20220;-58
2021/09/01 14:07:17;;;;;;;3.50;3.00;;;;;;;;;;6307573;22;20639;-59
2021/09/01 14:09:43;;;;;;;3.78;3.13;;;;;;;;;;6307807;22;20149;-58
2021/09/01 14:12:09;;;;;;;4.03;2.88;;;;;;;;;;6307211;22;20544;-58
2021/09/01 14:14:35;;;;;;;4.13;2.80;;;;;;;;;;6307655;22;20455;-59
2021/09/01 14:17:01;;;;;;;3.40;3.08;;;;;;;;;;6307388;22;20138;-58
2021/09/01 14:19:26;;;;;;;6.15;3.42;;;;;;;;;;6307105;22;20157;-58
2021/09/01 14:21:52;;;;;;;4.05;3.15;;;;;;;;;;6280488;22;20161;-58
2021/09/01 14:24:18;;;;;;;4.70;3.20;;;;;;;;;;6307071;22;20145;-59
2021/09/01 14:26:44;;;;;;;4.20;3.38;;;;;;;;;;6306815;22;20198;-58
2021/09/01 14:29:10;;;;;;;4.80;3.40;;;;;;;;;;6307159;22;20142;-58
2021/09/01 14:31:36;;;;;;;3.88;3.45;;;;;;;;;;6307191;22;20781;-59
2021/09/01 14:34:02;;;;;;;7.07;3.30;;;;;;;;;;6307080;22;20138;-59
2021/09/01 14:36:28;;;;;;;5.43;3.63;;;;;;;;;;6307562;22;20207;-59
2021/09/01 14:38:54;;;;;;;4.45;3.10;;;;;;;;;;6307018;22;20142;-59
2021/09/01 14:41:19;;;;;;;3.40;2.90;;;;;;;;;;6307141;22;20162;-59
2021/09/01 14:43:46;;;;;;;4.07;3.05;;;;;;;;;;6307100;22;20585;-59
2021/09/01 14:46:11;;;;;;;5.75;3.35;;;;;;;;;;6307403;22;20138;-58
2021/09/01 14:48:37;;;;;;;3.67;3.28;;;;;;;;;;6306936;22;20195;-58
2021/09/01 14:51:04;;;;;;;5.07;3.38;;;;;;;;;;6306953;22;20143;-58
2021/09/01 14:53:30;;;;;;;4.45;3.22;;;;;;;;;;6307218;22;20255;-58
2021/09/01 14:55:56;;;;;;;4.68;3.03;;;;;;;;;;6307021;22;20173;-63
2021/09/01 14:58:22;;;;;;;4.50;3.05;;;;;;;;;;6306906;22;20146;-63
2021/09/01 15:00:50;;;;;;;4.20;3.20;;;;;;;;;;6307193;22;20251;-63
2021/09/01 15:03:16;;;;;;;4.07;2.97;;;;;;;;;;6308952;22;20217;-63
2021/09/01 15:05:42;;;;;;;5.75;3.38;;;;;;;;;;6309638;22;20411;-63
2021/09/01 15:08:08;;;;;;;4.25;3.10;;;;;;;;;;6308878;22;20177;-63
2021/09/01 15:10:33;;;;;;;5.95;3.15;;;;;;;;;;6309719;22;20145;-62
2021/09/01 15:12:59;;;;;;;3.83;3.20;;;;;;;;;;6281498;22;20142;-63
2021/09/01 15:15:25;;;;;;;4.43;3.05;;;;;;;;;;6308953;22;20166;-63
2021/09/01 15:17:51;;;;;;;3.72;3.00;;;;;;;;;;6308785;22;20142;-63
2021/09/01 15:20:18;;;;;;;4.65;3.90;;;;;;;;;;6308671;22;20646;-63
2021/09/01 15:22:45;;;;;;;4.43;3.20;;;;;;;;;;6308775;22;20573;-63
2021/09/01 15:25:12;;;;;;;4.13;3.50;;;;;;;;;;6309003;22;20427;-63